sensor_id;sensor_type;location;lat;lon;timestamp;temperature;humidity
51725;DHT22;37801;53.224;6.552;2023-03-16T00:02:05;4.50;1.00
51725;DHT22;37801;53.224;6.552;2023-03-16T00:04:32;4.60;1.00
51725;DHT22;37801;53.224;6.552;2023-03-16T00:07:02;4.50;1.00
51725;DHT22;37801;53.224;6.552;2023-03-16T00:09:28;4.60;1.00
51725;DHT22;37801;53.224;6.552;2023-03-16T00:11:57;4.60;1.00
51725;DHT22;37801;53.224;6.552;2023-03-16T00:14:23;4.60;1.00
51725;DHT22;37801;53.224;6.552;2023-03-16T00:16:49;4.60;1.00
51725;DHT22;37801;53.224;6.552;2023-03-16T00:19:15;4.60;1.00
51725;DHT22;37801;53.224;6.552;2023-03-16T00:21:41;4.60;1.00
51725;DHT22;37801;53.224;6.552;2023-03-16T00:24:06;4.60;1.00
51725;DHT22;37801;53.224;6.552;2023-03-16T00:26:32;4.60;1.00
51725;DHT22;37801;53.224;6.552;2023-03-16T00:28:58;4.70;1.00
51725;DHT22;37801;53.224;6.552;2023-03-16T00:31:24;4.60;1.00
51725;DHT22;37801;53.224;6.552;2023-03-16T00:33:50;4.60;1.00
51725;DHT22;37801;53.224;6.552;2023-03-16T00:36:16;4.60;1.00
51725;DHT22;37801;53.224;6.552;2023-03-16T00:38:42;4.70;1.00
51725;DHT22;37801;53.224;6.552;2023-03-16T00:41:14;4.60;1.00
51725;DHT22;37801;53.224;6.552;2023-03-16T00:43:41;4.60;1.00
51725;DHT22;37801;53.224;6.552;2023-03-16T00:46:11;4.60;1.00
51725;DHT22;37801;53.224;6.552;2023-03-16T00:48:41;4.60;1.00
51725;DHT22;37801;53.224;6.552;2023-03-16T00:51:12;4.60;1.00
51725;DHT22;37801;53.224;6.552;2023-03-16T00:53:40;4.60;1.00
51725;DHT22;37801;53.224;6.552;2023-03-16T00:56:07;4.60;1.00
51725;DHT22;37801;53.224;6.552;2023-03-16T00:58:35;4.60;1.00
51725;DHT22;37801;53.224;6.552;2023-03-16T01:01:07;4.70;1.00
51725;DHT22;37801;53.224;6.552;2023-03-16T01:03:34;4.60;1.00
51725;DHT22;37801;53.224;6.552;2023-03-16T01:06:09;4.70;1.00
51725;DHT22;37801;53.224;6.552;2023-03-16T01:08:36;4.70;1.00
51725;DHT22;37801;53.224;6.552;2023-03-16T01:11:22;4.70;1.00
51725;DHT22;37801;53.224;6.552;2023-03-16T01:13:49;4.60;1.00
51725;DHT22;37801;53.224;6.552;2023-03-16T01:16:16;4.60;1.00
51725;DHT22;37801;53.224;6.552;2023-03-16T01:18:47;4.70;1.00
51725;DHT22;37801;53.224;6.552;2023-03-16T01:21:14;4.60;1.00
51725;DHT22;37801;53.224;6.552;2023-03-16T01:23:40;4.70;1.00
51725;DHT22;37801;53.224;6.552;2023-03-16T01:26:08;4.70;1.00
51725;DHT22;37801;53.224;6.552;2023-03-16T01:28:34;4.70;1.00
51725;DHT22;37801;53.224;6.552;2023-03-16T01:31:10;4.70;1.00
51725;DHT22;37801;53.224;6.552;2023-03-16T01:33:37;4.70;1.00
51725;DHT22;37801;53.224;6.552;2023-03-16T01:36:09;4.70;1.00
51725;DHT22;37801;53.224;6.552;2023-03-16T01:38:35;4.70;1.00
51725;DHT22;37801;53.224;6.552;2023-03-16T01:41:02;4.70;1.00
51725;DHT22;37801;53.224;6.552;2023-03-16T01:43:29;4.70;1.00
51725;DHT22;37801;53.224;6.552;2023-03-16T01:53:56;4.60;1.00
51725;DHT22;37801;53.224;6.552;2023-03-16T01:56:32;4.60;1.00
51725;DHT22;37801;53.224;6.552;2023-03-16T01:59:03;4.70;1.00
51725;DHT22;37801;53.224;6.552;2023-03-16T02:01:31;4.70;1.00
51725;DHT22;37801;53.224;6.552;2023-03-16T02:04:49;4.70;1.00
51725;DHT22;37801;53.224;6.552;2023-03-16T02:06:48;4.70;1.00
51725;DHT22;37801;53.224;6.552;2023-03-16T02:09:15;4.70;1.00
51725;DHT22;37801;53.224;6.552;2023-03-16T02:11:42;4.70;1.00
51725;DHT22;37801;53.224;6.552;2023-03-16T02:14:10;4.70;1.00
51725;DHT22;37801;53.224;6.552;2023-03-16T02:16:37;4.70;1.00
51725;DHT22;37801;53.224;6.552;2023-03-16T02:19:08;4.70;1.00
51725;DHT22;37801;53.224;6.552;2023-03-16T02:24:11;4.70;1.00
51725;DHT22;37801;53.224;6.552;2023-03-16T02:26:49;4.70;1.00
51725;DHT22;37801;53.224;6.552;2023-03-16T02:29:54;4.70;1.00
51725;DHT22;37801;53.224;6.552;2023-03-16T02:32:22;4.60;1.00
51725;DHT22;37801;53.224;6.552;2023-03-16T02:34:49;4.70;1.00
51725;DHT22;37801;53.224;6.552;2023-03-16T02:37:14;4.70;1.00
51725;DHT22;37801;53.224;6.552;2023-03-16T02:39:40;4.60;1.00
51725;DHT22;37801;53.224;6.552;2023-03-16T02:42:13;4.70;1.00
51725;DHT22;37801;53.224;6.552;2023-03-16T02:44:41;4.70;1.00
51725;DHT22;37801;53.224;6.552;2023-03-16T02:47:46;4.70;1.00
51725;DHT22;37801;53.224;6.552;2023-03-16T02:50:06;4.70;1.00
51725;DHT22;37801;53.224;6.552;2023-03-16T02:52:34;4.70;1.00
51725;DHT22;37801;53.224;6.552;2023-03-16T02:55:00;4.70;1.00
51725;DHT22;37801;53.224;6.552;2023-03-16T02:57:26;4.70;1.00
51725;DHT22;37801;53.224;6.552;2023-03-16T02:59:52;4.80;1.00
51725;DHT22;37801;53.224;6.552;2023-03-16T03:02:18;4.80;1.00
51725;DHT22;37801;53.224;6.552;2023-03-16T03:04:43;4.80;1.00
51725;DHT22;37801;53.224;6.552;2023-03-16T03:07:12;4.80;1.00
51725;DHT22;37801;53.224;6.552;2023-03-16T03:09:39;4.80;1.00
51725;DHT22;37801;53.224;6.552;2023-03-16T03:12:11;4.80;1.00
51725;DHT22;37801;53.224;6.552;2023-03-16T03:14:37;4.80;1.00
51725;DHT22;37801;53.224;6.552;2023-03-16T03:17:08;4.90;1.00
51725;DHT22;37801;53.224;6.552;2023-03-16T03:19:35;4.90;1.00
51725;DHT22;37801;53.224;6.552;2023-03-16T03:22:02;4.80;1.00
51725;DHT22;37801;53.224;6.552;2023-03-16T03:24:32;4.80;1.00
51725;DHT22;37801;53.224;6.552;2023-03-16T03:26:58;4.80;1.00
51725;DHT22;37801;53.224;6.552;2023-03-16T03:29:26;4.90;1.00
51725;DHT22;37801;53.224;6.552;2023-03-16T03:32:02;4.80;1.00
51725;DHT22;37801;53.224;6.552;2023-03-16T03:34:29;4.90;1.00
51725;DHT22;37801;53.224;6.552;2023-03-16T03:36:56;4.90;1.00
51725;DHT22;37801;53.224;6.552;2023-03-16T03:39:22;4.90;1.00
51725;DHT22;37801;53.224;6.552;2023-03-16T03:41:48;4.90;1.00
51725;DHT22;37801;53.224;6.552;2023-03-16T03:44:14;4.90;1.00
51725;DHT22;37801;53.224;6.552;2023-03-16T03:46:39;4.90;1.00
51725;DHT22;37801;53.224;6.552;2023-03-16T03:49:05;4.90;1.00
51725;DHT22;37801;53.224;6.552;2023-03-16T03:51:32;4.90;1.00
51725;DHT22;37801;53.224;6.552;2023-03-16T03:53:58;4.90;1.00
51725;DHT22;37801;53.224;6.552;2023-03-16T03:56:24;4.90;1.00
51725;DHT22;37801;53.224;6.552;2023-03-16T03:58:50;4.90;1.00
51725;DHT22;37801;53.224;6.552;2023-03-16T04:01:16;4.90;1.00
51725;DHT22;37801;53.224;6.552;2023-03-16T04:03:42;4.90;1.00
51725;DHT22;37801;53.224;6.552;2023-03-16T04:06:08;4.90;1.00
51725;DHT22;37801;53.224;6.552;2023-03-16T04:08:34;4.90;1.00
51725;DHT22;37801;53.224;6.552;2023-03-16T04:11:00;4.90;1.00
51725;DHT22;37801;53.224;6.552;2023-03-16T04:13:26;4.90;1.00
51725;DHT22;37801;53.224;6.552;2023-03-16T04:15:56;4.90;1.00
51725;DHT22;37801;53.224;6.552;2023-03-16T04:18:22;4.90;1.00
51725;DHT22;37801;53.224;6.552;2023-03-16T04:20:48;4.90;1.00
51725;DHT22;37801;53.224;6.552;2023-03-16T04:23:14;4.90;1.00
51725;DHT22;37801;53.224;6.552;2023-03-16T04:25:41;4.90;1.00
51725;DHT22;37801;53.224;6.552;2023-03-16T04:28:07;4.90;1.00
51725;DHT22;37801;53.224;6.552;2023-03-16T04:30:33;4.90;1.00
51725;DHT22;37801;53.224;6.552;2023-03-16T04:32:59;4.90;1.00
51725;DHT22;37801;53.224;6.552;2023-03-16T04:35:25;4.90;1.00
51725;DHT22;37801;53.224;6.552;2023-03-16T04:37:51;4.90;1.00
51725;DHT22;37801;53.224;6.552;2023-03-16T04:40:16;4.90;1.00
51725;DHT22;37801;53.224;6.552;2023-03-16T04:42:45;4.90;1.00
51725;DHT22;37801;53.224;6.552;2023-03-16T04:45:11;4.90;1.00
51725;DHT22;37801;53.224;6.552;2023-03-16T04:47:38;4.80;1.00
51725;DHT22;37801;53.224;6.552;2023-03-16T04:50:05;4.90;1.00
51725;DHT22;37801;53.224;6.552;2023-03-16T04:52:31;4.90;1.00
51725;DHT22;37801;53.224;6.552;2023-03-16T04:54:57;4.90;1.00
51725;DHT22;37801;53.224;6.552;2023-03-16T04:57:23;4.90;1.00
51725;DHT22;37801;53.224;6.552;2023-03-16T04:59:49;4.90;1.00
51725;DHT22;37801;53.224;6.552;2023-03-16T05:02:16;4.90;1.00
51725;DHT22;37801;53.224;6.552;2023-03-16T05:04:43;4.90;1.00
51725;DHT22;37801;53.224;6.552;2023-03-16T05:07:09;4.90;1.00
51725;DHT22;37801;53.224;6.552;2023-03-16T05:09:35;4.90;1.00
51725;DHT22;37801;53.224;6.552;2023-03-16T05:12:01;4.90;1.00
51725;DHT22;37801;53.224;6.552;2023-03-16T05:14:27;4.90;1.00
51725;DHT22;37801;53.224;6.552;2023-03-16T05:16:53;4.90;1.00
51725;DHT22;37801;53.224;6.552;2023-03-16T05:19:18;4.90;1.00
51725;DHT22;37801;53.224;6.552;2023-03-16T05:21:44;4.90;1.00
51725;DHT22;37801;53.224;6.552;2023-03-16T05:24:10;4.90;1.00
51725;DHT22;37801;53.224;6.552;2023-03-16T05:26:37;4.90;1.00
51725;DHT22;37801;53.224;6.552;2023-03-16T05:29:03;4.90;1.00
51725;DHT22;37801;53.224;6.552;2023-03-16T05:31:29;4.90;1.00
51725;DHT22;37801;53.224;6.552;2023-03-16T05:33:58;4.90;1.00
51725;DHT22;37801;53.224;6.552;2023-03-16T05:36:23;4.90;1.00
51725;DHT22;37801;53.224;6.552;2023-03-16T05:38:50;4.90;1.00
51725;DHT22;37801;53.224;6.552;2023-03-16T05:41:16;4.90;1.00
51725;DHT22;37801;53.224;6.552;2023-03-16T05:43:46;4.90;1.00
51725;DHT22;37801;53.224;6.552;2023-03-16T05:46:12;4.90;1.00
51725;DHT22;37801;53.224;6.552;2023-03-16T05:48:38;4.90;1.00
51725;DHT22;37801;53.224;6.552;2023-03-16T05:51:04;4.90;1.00
51725;DHT22;37801;53.224;6.552;2023-03-16T05:53:33;4.90;1.00
51725;DHT22;37801;53.224;6.552;2023-03-16T05:56:00;4.90;1.00
51725;DHT22;37801;53.224;6.552;2023-03-16T05:58:27;4.90;1.00
51725;DHT22;37801;53.224;6.552;2023-03-16T06:00:53;4.90;1.00
51725;DHT22;37801;53.224;6.552;2023-03-16T06:03:20;4.90;1.00
51725;DHT22;37801;53.224;6.552;2023-03-16T06:05:47;4.90;1.00
51725;DHT22;37801;53.224;6.552;2023-03-16T06:08:13;4.90;1.00
51725;DHT22;37801;53.224;6.552;2023-03-16T06:10:40;5.00;1.00
51725;DHT22;37801;53.224;6.552;2023-03-16T06:13:06;4.90;1.00
51725;DHT22;37801;53.224;6.552;2023-03-16T06:15:32;4.90;1.00
51725;DHT22;37801;53.224;6.552;2023-03-16T06:17:57;5.00;1.00
51725;DHT22;37801;53.224;6.552;2023-03-16T06:20:23;5.00;1.00
51725;DHT22;37801;53.224;6.552;2023-03-16T06:22:49;5.00;1.00
51725;DHT22;37801;53.224;6.552;2023-03-16T06:25:15;5.00;1.00
51725;DHT22;37801;53.224;6.552;2023-03-16T06:27:42;5.00;1.00
51725;DHT22;37801;53.224;6.552;2023-03-16T06:30:10;5.00;1.00
51725;DHT22;37801;53.224;6.552;2023-03-16T06:32:37;5.00;1.00
51725;DHT22;37801;53.224;6.552;2023-03-16T06:35:04;5.00;1.00
51725;DHT22;37801;53.224;6.552;2023-03-16T06:37:29;5.00;1.00
51725;DHT22;37801;53.224;6.552;2023-03-16T06:39:55;5.00;1.00
51725;DHT22;37801;53.224;6.552;2023-03-16T06:42:21;5.00;1.00
51725;DHT22;37801;53.224;6.552;2023-03-16T06:44:48;5.00;1.00
51725;DHT22;37801;53.224;6.552;2023-03-16T06:47:14;5.00;1.00
51725;DHT22;37801;53.224;6.552;2023-03-16T06:49:40;5.00;1.00
51725;DHT22;37801;53.224;6.552;2023-03-16T06:52:06;5.10;1.00
51725;DHT22;37801;53.224;6.552;2023-03-16T06:54:31;5.10;1.00
51725;DHT22;37801;53.224;6.552;2023-03-16T06:56:59;5.10;1.00
51725;DHT22;37801;53.224;6.552;2023-03-16T06:59:26;5.20;1.00
51725;DHT22;37801;53.224;6.552;2023-03-16T07:01:52;5.20;1.00
51725;DHT22;37801;53.224;6.552;2023-03-16T07:04:17;5.20;1.00
51725;DHT22;37801;53.224;6.552;2023-03-16T07:06:43;5.20;1.00
51725;DHT22;37801;53.224;6.552;2023-03-16T07:09:09;5.20;1.00
51725;DHT22;37801;53.224;6.552;2023-03-16T07:11:37;5.20;1.00
51725;DHT22;37801;53.224;6.552;2023-03-16T07:14:03;5.20;1.00
51725;DHT22;37801;53.224;6.552;2023-03-16T07:16:29;5.30;1.00
51725;DHT22;37801;53.224;6.552;2023-03-16T07:18:55;5.30;1.00
51725;DHT22;37801;53.224;6.552;2023-03-16T07:21:21;5.30;1.00
51725;DHT22;37801;53.224;6.552;2023-03-16T07:23:47;5.30;1.00
51725;DHT22;37801;53.224;6.552;2023-03-16T07:26:12;5.30;1.00
51725;DHT22;37801;53.224;6.552;2023-03-16T07:28:38;5.40;1.00
51725;DHT22;37801;53.224;6.552;2023-03-16T07:31:05;5.40;1.00
51725;DHT22;37801;53.224;6.552;2023-03-16T07:33:32;5.40;1.00
51725;DHT22;37801;53.224;6.552;2023-03-16T07:35:58;5.40;1.00
51725;DHT22;37801;53.224;6.552;2023-03-16T07:38:24;5.50;1.00
51725;DHT22;37801;53.224;6.552;2023-03-16T07:40:50;5.50;1.00
51725;DHT22;37801;53.224;6.552;2023-03-16T07:43:18;5.50;1.00
51725;DHT22;37801;53.224;6.552;2023-03-16T07:45:48;5.60;1.00
51725;DHT22;37801;53.224;6.552;2023-03-16T07:48:14;5.50;1.00
51725;DHT22;37801;53.224;6.552;2023-03-16T07:50:40;5.50;1.00
51725;DHT22;37801;53.224;6.552;2023-03-16T07:53:06;5.60;1.00
51725;DHT22;37801;53.224;6.552;2023-03-16T07:55:32;5.60;1.00
51725;DHT22;37801;53.224;6.552;2023-03-16T07:58:01;5.60;1.00
51725;DHT22;37801;53.224;6.552;2023-03-16T08:00:27;5.60;1.00
51725;DHT22;37801;53.224;6.552;2023-03-16T08:02:53;5.70;1.00
51725;DHT22;37801;53.224;6.552;2023-03-16T08:05:20;5.70;1.00
51725;DHT22;37801;53.224;6.552;2023-03-16T08:07:46;5.70;1.00
51725;DHT22;37801;53.224;6.552;2023-03-16T08:10:12;5.80;1.00
51725;DHT22;37801;53.224;6.552;2023-03-16T08:12:38;5.80;1.00
51725;DHT22;37801;53.224;6.552;2023-03-16T08:15:04;5.80;1.00
51725;DHT22;37801;53.224;6.552;2023-03-16T08:17:30;5.80;1.00
51725;DHT22;37801;53.224;6.552;2023-03-16T08:19:56;5.90;1.00
51725;DHT22;37801;53.224;6.552;2023-03-16T08:22:22;5.90;1.00
51725;DHT22;37801;53.224;6.552;2023-03-16T08:24:48;5.90;1.00
51725;DHT22;37801;53.224;6.552;2023-03-16T08:27:15;5.90;1.00
51725;DHT22;37801;53.224;6.552;2023-03-16T08:29:41;5.90;1.00
51725;DHT22;37801;53.224;6.552;2023-03-16T08:32:06;5.80;1.00
51725;DHT22;37801;53.224;6.552;2023-03-16T08:34:32;5.90;1.00
51725;DHT22;37801;53.224;6.552;2023-03-16T08:36:58;5.80;1.00
51725;DHT22;37801;53.224;6.552;2023-03-16T08:39:24;5.70;1.00
51725;DHT22;37801;53.224;6.552;2023-03-16T08:41:50;5.70;1.00
51725;DHT22;37801;53.224;6.552;2023-03-16T08:44:16;5.70;1.20
51725;DHT22;37801;53.224;6.552;2023-03-16T08:46:42;5.80;3.70
51725;DHT22;37801;53.224;6.552;2023-03-16T08:49:09;5.70;1.00
51725;DHT22;37801;53.224;6.552;2023-03-16T08:51:35;5.80;5.10
51725;DHT22;37801;53.224;6.552;2023-03-16T08:54:01;5.70;12.80
51725;DHT22;37801;53.224;6.552;2023-03-16T08:56:27;5.70;17.20
51725;DHT22;37801;53.224;6.552;2023-03-16T08:58:55;5.70;18.80
51725;DHT22;37801;53.224;6.552;2023-03-16T09:01:22;5.70;43.70
51725;DHT22;37801;53.224;6.552;2023-03-16T09:03:49;5.70;42.90
51725;DHT22;37801;53.224;6.552;2023-03-16T09:06:16;5.80;56.60
51725;DHT22;37801;53.224;6.552;2023-03-16T09:08:42;5.80;75.50
51725;DHT22;37801;53.224;6.552;2023-03-16T09:11:11;5.90;77.60
51725;DHT22;37801;53.224;6.552;2023-03-16T09:13:39;5.90;83.60
51725;DHT22;37801;53.224;6.552;2023-03-16T09:16:07;5.80;83.10
51725;DHT22;37801;53.224;6.552;2023-03-16T09:18:34;5.90;93.60
51725;DHT22;37801;53.224;6.552;2023-03-16T09:21:05;5.80;93.60
51725;DHT22;37801;53.224;6.552;2023-03-16T09:23:32;5.70;92.60
51725;DHT22;37801;53.224;6.552;2023-03-16T09:26:00;5.80;94.80
51725;DHT22;37801;53.224;6.552;2023-03-16T09:28:28;5.70;99.90
51725;DHT22;37801;53.224;6.552;2023-03-16T09:30:56;5.70;99.90
51725;DHT22;37801;53.224;6.552;2023-03-16T09:33:23;5.70;99.90
51725;DHT22;37801;53.224;6.552;2023-03-16T09:35:50;5.60;99.90
51725;DHT22;37801;53.224;6.552;2023-03-16T09:38:17;5.70;99.90
51725;DHT22;37801;53.224;6.552;2023-03-16T09:40:43;5.70;99.90
51725;DHT22;37801;53.224;6.552;2023-03-16T09:48:32;5.90;99.90
51725;DHT22;37801;53.224;6.552;2023-03-16T09:51:01;5.90;99.90
51725;DHT22;37801;53.224;6.552;2023-03-16T09:53:33;5.90;99.90
51725;DHT22;37801;53.224;6.552;2023-03-16T09:58:28;6.10;99.90
51725;DHT22;37801;53.224;6.552;2023-03-16T10:06:58;6.20;99.90
51725;DHT22;37801;53.224;6.552;2023-03-16T10:09:38;6.20;99.90
51725;DHT22;37801;53.224;6.552;2023-03-16T10:12:06;6.20;99.90
51725;DHT22;37801;53.224;6.552;2023-03-16T10:14:53;6.20;99.90
51725;DHT22;37801;53.224;6.552;2023-03-16T10:17:34;6.20;99.90
51725;DHT22;37801;53.224;6.552;2023-03-16T10:20:05;6.20;99.90
51725;DHT22;37801;53.224;6.552;2023-03-16T10:22:37;6.30;99.90
51725;DHT22;37801;53.224;6.552;2023-03-16T10:25:08;6.30;99.90
51725;DHT22;37801;53.224;6.552;2023-03-16T10:27:39;6.30;99.90
51725;DHT22;37801;53.224;6.552;2023-03-16T10:32:45;6.30;99.90
51725;DHT22;37801;53.224;6.552;2023-03-16T10:40:53;6.30;99.90
51725;DHT22;37801;53.224;6.552;2023-03-16T10:43:19;6.20;99.90
51725;DHT22;37801;53.224;6.552;2023-03-16T10:45:45;6.30;99.90
51725;DHT22;37801;53.224;6.552;2023-03-16T10:48:15;6.20;99.90
51725;DHT22;37801;53.224;6.552;2023-03-16T10:50:42;6.20;99.90
51725;DHT22;37801;53.224;6.552;2023-03-16T10:53:21;6.10;99.90
51725;DHT22;37801;53.224;6.552;2023-03-16T10:55:49;6.10;99.90
51725;DHT22;37801;53.224;6.552;2023-03-16T10:58:33;6.10;99.90
51725;DHT22;37801;53.224;6.552;2023-03-16T11:00:59;6.10;99.90
51725;DHT22;37801;53.224;6.552;2023-03-16T11:03:38;6.20;99.90
51725;DHT22;37801;53.224;6.552;2023-03-16T11:06:06;6.20;99.90
51725;DHT22;37801;53.224;6.552;2023-03-16T11:08:36;6.20;99.90
51725;DHT22;37801;53.224;6.552;2023-03-16T11:11:28;6.20;99.90
51725;DHT22;37801;53.224;6.552;2023-03-16T11:13:59;6.20;99.90
51725;DHT22;37801;53.224;6.552;2023-03-16T11:22:04;6.10;99.90
51725;DHT22;37801;53.224;6.552;2023-03-16T11:24:48;6.20;99.90
51725;DHT22;37801;53.224;6.552;2023-03-16T11:27:25;6.20;99.90
51725;DHT22;37801;53.224;6.552;2023-03-16T11:30:07;6.30;99.90
51725;DHT22;37801;53.224;6.552;2023-03-16T11:32:36;6.40;99.90
51725;DHT22;37801;53.224;6.552;2023-03-16T11:35:35;6.50;99.90
51725;DHT22;37801;53.224;6.552;2023-03-16T11:41:00;6.60;99.90
51725;DHT22;37801;53.224;6.552;2023-03-16T11:46:17;6.80;99.90
51725;DHT22;37801;53.224;6.552;2023-03-16T11:56:42;6.80;99.90
51725;DHT22;37801;53.224;6.552;2023-03-16T11:59:40;6.80;99.90
51725;DHT22;37801;53.224;6.552;2023-03-16T12:10:33;6.90;99.90
51725;DHT22;37801;53.224;6.552;2023-03-16T12:13:21;7.00;99.90
51725;DHT22;37801;53.224;6.552;2023-03-16T12:18:46;7.20;99.90
51725;DHT22;37801;53.224;6.552;2023-03-16T12:21:33;7.40;99.90
51725;DHT22;37801;53.224;6.552;2023-03-16T12:24:03;7.50;99.90
51725;DHT22;37801;53.224;6.552;2023-03-16T12:26:35;7.60;91.60
51725;DHT22;37801;53.224;6.552;2023-03-16T12:29:05;7.70;90.50
51725;DHT22;37801;53.224;6.552;2023-03-16T12:31:35;7.80;57.50
51725;DHT22;37801;53.224;6.552;2023-03-16T12:50:25;8.20;1.00
51725;DHT22;37801;53.224;6.552;2023-03-16T12:52:52;8.30;8.00
51725;DHT22;37801;53.224;6.552;2023-03-16T12:55:24;8.30;1.00
51725;DHT22;37801;53.224;6.552;2023-03-16T12:57:57;8.30;1.00
51725;DHT22;37801;53.224;6.552;2023-03-16T13:00:36;8.30;1.00
51725;DHT22;37801;53.224;6.552;2023-03-16T13:03:04;8.40;1.00
51725;DHT22;37801;53.224;6.552;2023-03-16T13:05:33;8.40;1.00
51725;DHT22;37801;53.224;6.552;2023-03-16T13:10:34;8.40;1.00
51725;DHT22;37801;53.224;6.552;2023-03-16T13:13:16;8.40;1.00
51725;DHT22;37801;53.224;6.552;2023-03-16T13:15:43;8.40;1.00
51725;DHT22;37801;53.224;6.552;2023-03-16T13:20:57;8.50;1.00
51725;DHT22;37801;53.224;6.552;2023-03-16T13:26:17;8.50;1.00
51725;DHT22;37801;53.224;6.552;2023-03-16T13:28:52;8.50;1.00
51725;DHT22;37801;53.224;6.552;2023-03-16T13:31:36;8.50;1.00
51725;DHT22;37801;53.224;6.552;2023-03-16T13:34:04;8.60;1.00
51725;DHT22;37801;53.224;6.552;2023-03-16T13:36:31;8.70;1.00
51725;DHT22;37801;53.224;6.552;2023-03-16T13:39:19;8.70;1.00
51725;DHT22;37801;53.224;6.552;2023-03-16T13:42:17;8.80;1.00
51725;DHT22;37801;53.224;6.552;2023-03-16T13:44:43;8.90;1.00
51725;DHT22;37801;53.224;6.552;2023-03-16T13:47:17;9.00;1.00
51725;DHT22;37801;53.224;6.552;2023-03-16T13:49:54;9.00;1.00
51725;DHT22;37801;53.224;6.552;2023-03-16T13:54:50;9.20;1.00
51725;DHT22;37801;53.224;6.552;2023-03-16T13:57:20;9.20;1.00
51725;DHT22;37801;53.224;6.552;2023-03-16T13:59:48;9.30;1.00
51725;DHT22;37801;53.224;6.552;2023-03-16T14:02:18;9.20;1.00
51725;DHT22;37801;53.224;6.552;2023-03-16T14:04:46;9.20;1.00
51725;DHT22;37801;53.224;6.552;2023-03-16T14:07:16;9.20;1.00
51725;DHT22;37801;53.224;6.552;2023-03-16T14:09:42;9.20;1.00
51725;DHT22;37801;53.224;6.552;2023-03-16T14:12:16;9.20;1.00
51725;DHT22;37801;53.224;6.552;2023-03-16T14:14:46;9.20;1.00
51725;DHT22;37801;53.224;6.552;2023-03-16T14:17:19;9.20;1.00
51725;DHT22;37801;53.224;6.552;2023-03-16T14:19:48;9.20;1.00
51725;DHT22;37801;53.224;6.552;2023-03-16T14:22:24;9.20;1.00
51725;DHT22;37801;53.224;6.552;2023-03-16T14:24:55;9.20;1.00
51725;DHT22;37801;53.224;6.552;2023-03-16T14:30:19;9.20;1.00
51725;DHT22;37801;53.224;6.552;2023-03-16T14:33:00;9.20;1.00
51725;DHT22;37801;53.224;6.552;2023-03-16T14:35:31;9.20;1.00
51725;DHT22;37801;53.224;6.552;2023-03-16T14:38:21;9.20;1.00
51725;DHT22;37801;53.224;6.552;2023-03-16T14:40:53;9.20;1.00
51725;DHT22;37801;53.224;6.552;2023-03-16T14:43:22;9.20;1.00
51725;DHT22;37801;53.224;6.552;2023-03-16T14:45:51;9.20;1.00
51725;DHT22;37801;53.224;6.552;2023-03-16T14:48:19;9.20;1.00
51725;DHT22;37801;53.224;6.552;2023-03-16T14:50:55;9.20;1.00
51725;DHT22;37801;53.224;6.552;2023-03-16T14:53:22;9.20;1.00
51725;DHT22;37801;53.224;6.552;2023-03-16T14:55:49;9.30;1.00
51725;DHT22;37801;53.224;6.552;2023-03-16T14:58:15;9.30;1.00
51725;DHT22;37801;53.224;6.552;2023-03-16T15:00:41;9.40;1.00
51725;DHT22;37801;53.224;6.552;2023-03-16T15:03:14;9.40;1.00
51725;DHT22;37801;53.224;6.552;2023-03-16T15:05:44;9.50;1.00
51725;DHT22;37801;53.224;6.552;2023-03-16T15:08:26;9.50;1.00
51725;DHT22;37801;53.224;6.552;2023-03-16T15:10:54;9.50;1.00
51725;DHT22;37801;53.224;6.552;2023-03-16T15:13:22;9.40;1.00
51725;DHT22;37801;53.224;6.552;2023-03-16T15:16:09;9.40;1.00
51725;DHT22;37801;53.224;6.552;2023-03-16T15:18:36;9.40;1.00
51725;DHT22;37801;53.224;6.552;2023-03-16T15:21:12;9.40;1.00
51725;DHT22;37801;53.224;6.552;2023-03-16T15:23:40;9.40;1.00
51725;DHT22;37801;53.224;6.552;2023-03-16T15:26:18;9.30;1.00
51725;DHT22;37801;53.224;6.552;2023-03-16T15:28:45;9.30;1.00
51725;DHT22;37801;53.224;6.552;2023-03-16T15:31:12;9.30;1.00
51725;DHT22;37801;53.224;6.552;2023-03-16T15:33:41;9.30;1.00
51725;DHT22;37801;53.224;6.552;2023-03-16T15:36:14;9.30;1.00
51725;DHT22;37801;53.224;6.552;2023-03-16T15:38:45;9.20;1.00
51725;DHT22;37801;53.224;6.552;2023-03-16T15:41:11;9.20;1.00
51725;DHT22;37801;53.224;6.552;2023-03-16T15:43:37;9.20;1.00
51725;DHT22;37801;53.224;6.552;2023-03-16T15:46:04;9.20;1.00
51725;DHT22;37801;53.224;6.552;2023-03-16T15:48:31;9.30;1.00
51725;DHT22;37801;53.224;6.552;2023-03-16T15:51:03;9.20;1.00
51725;DHT22;37801;53.224;6.552;2023-03-16T15:53:42;9.20;1.00
51725;DHT22;37801;53.224;6.552;2023-03-16T15:56:14;9.20;1.00
51725;DHT22;37801;53.224;6.552;2023-03-16T15:58:42;9.20;1.00
51725;DHT22;37801;53.224;6.552;2023-03-16T16:01:26;9.10;1.00
51725;DHT22;37801;53.224;6.552;2023-03-16T16:03:55;9.20;1.00
51725;DHT22;37801;53.224;6.552;2023-03-16T16:06:21;9.10;1.00
51725;DHT22;37801;53.224;6.552;2023-03-16T16:08:48;9.10;1.00
51725;DHT22;37801;53.224;6.552;2023-03-16T16:11:25;9.10;1.00
51725;DHT22;37801;53.224;6.552;2023-03-16T16:13:53;9.10;1.00
51725;DHT22;37801;53.224;6.552;2023-03-16T16:16:20;9.10;1.00
51725;DHT22;37801;53.224;6.552;2023-03-16T16:18:46;9.10;1.00
51725;DHT22;37801;53.224;6.552;2023-03-16T16:21:18;9.10;1.00
51725;DHT22;37801;53.224;6.552;2023-03-16T16:23:46;9.10;1.00
51725;DHT22;37801;53.224;6.552;2023-03-16T16:26:36;9.10;1.00
51725;DHT22;37801;53.224;6.552;2023-03-16T16:29:14;9.10;1.00
51725;DHT22;37801;53.224;6.552;2023-03-16T16:31:40;9.10;1.00
51725;DHT22;37801;53.224;6.552;2023-03-16T16:34:15;9.00;1.00
51725;DHT22;37801;53.224;6.552;2023-03-16T16:36:46;9.00;1.00
51725;DHT22;37801;53.224;6.552;2023-03-16T16:39:12;9.00;1.00
51725;DHT22;37801;53.224;6.552;2023-03-16T16:41:38;9.00;1.00
51725;DHT22;37801;53.224;6.552;2023-03-16T16:44:05;9.00;1.00
51725;DHT22;37801;53.224;6.552;2023-03-16T16:46:39;9.00;1.00
51725;DHT22;37801;53.224;6.552;2023-03-16T16:49:08;9.00;1.00
51725;DHT22;37801;53.224;6.552;2023-03-16T16:51:35;9.00;1.00
51725;DHT22;37801;53.224;6.552;2023-03-16T16:54:17;8.90;1.00
51725;DHT22;37801;53.224;6.552;2023-03-16T16:56:43;8.90;1.00
51725;DHT22;37801;53.224;6.552;2023-03-16T16:59:19;8.90;1.00
51725;DHT22;37801;53.224;6.552;2023-03-16T17:01:47;8.90;1.00
51725;DHT22;37801;53.224;6.552;2023-03-16T17:04:20;8.80;1.00
51725;DHT22;37801;53.224;6.552;2023-03-16T17:06:48;8.80;1.00
51725;DHT22;37801;53.224;6.552;2023-03-16T17:09:15;8.80;1.00
51725;DHT22;37801;53.224;6.552;2023-03-16T17:11:43;8.80;1.00
51725;DHT22;37801;53.224;6.552;2023-03-16T17:14:15;8.70;1.00
51725;DHT22;37801;53.224;6.552;2023-03-16T17:16:41;8.60;1.00
51725;DHT22;37801;53.224;6.552;2023-03-16T17:19:21;8.50;1.00
51725;DHT22;37801;53.224;6.552;2023-03-16T17:21:48;8.50;1.00
51725;DHT22;37801;53.224;6.552;2023-03-16T17:24:15;8.40;1.00
51725;DHT22;37801;53.224;6.552;2023-03-16T17:26:46;8.40;1.00
51725;DHT22;37801;53.224;6.552;2023-03-16T17:29:15;8.30;1.00
51725;DHT22;37801;53.224;6.552;2023-03-16T17:31:42;8.30;1.00
51725;DHT22;37801;53.224;6.552;2023-03-16T17:34:25;8.20;1.00
51725;DHT22;37801;53.224;6.552;2023-03-16T17:36:51;8.10;1.00
51725;DHT22;37801;53.224;6.552;2023-03-16T17:39:22;8.10;1.00
51725;DHT22;37801;53.224;6.552;2023-03-16T17:41:52;8.00;1.00
51725;DHT22;37801;53.224;6.552;2023-03-16T17:44:19;8.00;1.00
51725;DHT22;37801;53.224;6.552;2023-03-16T17:46:45;8.00;1.00